sensor_id;sensor_type;location;lat;lon;timestamp;pressure;altitude;pressure_sealevel;temperature;humidity
70200;BME280;57587;55.688;37.600;2023-02-21T00:02:00;97220.22;;;-6.99;54.02
70200;BME280;57587;55.688;37.600;2023-02-21T00:04:46;97227.03;;;-7.07;53.88
70200;BME280;57587;55.688;37.600;2023-02-21T00:07:32;97222.50;;;-7.15;54.31
70200;BME280;57587;55.688;37.600;2023-02-21T00:10:18;97222.75;;;-7.18;54.34
70200;BME280;57587;55.688;37.600;2023-02-21T00:13:03;97223.03;;;-7.21;54.99
70200;BME280;57587;55.688;37.600;2023-02-21T00:15:49;97215.03;;;-7.29;54.96
70200;BME280;57587;55.688;37.600;2023-02-21T00:18:35;97220.69;;;-7.24;54.42
70200;BME280;57587;55.688;37.600;2023-02-21T00:21:22;97210.31;;;-7.14;55.35
70200;BME280;57587;55.688;37.600;2023-02-21T00:24:12;97203.59;;;-7.17;54.78
70200;BME280;57587;55.688;37.600;2023-02-21T00:26:58;97200.81;;;-7.25;54.50
70200;BME280;57587;55.688;37.600;2023-02-21T00:29:49;97200.81;;;-7.25;55.05
70200;BME280;57587;55.688;37.600;2023-02-21T00:32:35;97207.69;;;-7.24;55.28
70200;BME280;57587;55.688;37.600;2023-02-21T00:35:21;97199.63;;;-7.21;54.81
70200;BME280;57587;55.688;37.600;2023-02-21T00:38:06;97199.00;;;-7.34;54.98
70200;BME280;57587;55.688;37.600;2023-02-21T00:40:52;97196.13;;;-7.41;55.62
70200;BME280;57587;55.688;37.600;2023-02-21T00:43:38;97195.56;;;-7.45;55.90
70200;BME280;57587;55.688;37.600;2023-02-21T00:46:24;97192.97;;;-7.45;55.29
70200;BME280;57587;55.688;37.600;2023-02-21T00:49:10;97182.19;;;-7.40;56.12
70200;BME280;57587;55.688;37.600;2023-02-21T00:51:55;97184.53;;;-7.37;55.60
70200;BME280;57587;55.688;37.600;2023-02-21T00:54:41;97174.53;;;-7.32;55.59
70200;BME280;57587;55.688;37.600;2023-02-21T00:57:29;97179.25;;;-7.47;55.59
70200;BME280;57587;55.688;37.600;2023-02-21T01:00:18;97174.50;;;-7.42;55.79
70200;BME280;57587;55.688;37.600;2023-02-21T01:03:04;97170.94;;;-7.40;55.67
70200;BME280;57587;55.688;37.600;2023-02-21T01:05:51;97164.19;;;-7.53;55.06
70200;BME280;57587;55.688;37.600;2023-02-21T01:08:44;97158.34;;;-7.55;55.36
70200;BME280;57587;55.688;37.600;2023-02-21T01:11:30;97163.69;;;-7.47;55.44
70200;BME280;57587;55.688;37.600;2023-02-21T01:14:16;97161.41;;;-7.40;55.99
70200;BME280;57587;55.688;37.600;2023-02-21T01:17:02;97159.63;;;-7.39;56.13
70200;BME280;57587;55.688;37.600;2023-02-21T01:19:47;97147.56;;;-7.40;55.82
70200;BME280;57587;55.688;37.600;2023-02-21T01:22:33;97151.84;;;-7.39;56.03
70200;BME280;57587;55.688;37.600;2023-02-21T01:25:20;97148.16;;;-7.37;55.74
70200;BME280;57587;55.688;37.600;2023-02-21T01:28:06;97144.41;;;-7.44;55.87
70200;BME280;57587;55.688;37.600;2023-02-21T01:30:51;97142.38;;;-7.40;55.42
70200;BME280;57587;55.688;37.600;2023-02-21T01:33:39;97150.69;;;-7.47;54.87
70200;BME280;57587;55.688;37.600;2023-02-21T01:36:26;97140.81;;;-7.53;55.47
70200;BME280;57587;55.688;37.600;2023-02-21T01:39:13;97151.34;;;-7.54;55.40
70200;BME280;57587;55.688;37.600;2023-02-21T01:41:59;97141.19;;;-7.67;54.66
70200;BME280;57587;55.688;37.600;2023-02-21T01:44:47;97146.09;;;-7.74;55.42
70200;BME280;57587;55.688;37.600;2023-02-21T01:47:33;97146.16;;;-7.85;55.91
70200;BME280;57587;55.688;37.600;2023-02-21T01:53:12;97138.06;;;-7.92;54.95
70200;BME280;57587;55.688;37.600;2023-02-21T01:55:59;97143.81;;;-8.09;55.37
70200;BME280;57587;55.688;37.600;2023-02-21T01:58:48;97148.19;;;-8.09;55.96
70200;BME280;57587;55.688;37.600;2023-02-21T02:02:00;97144.72;;;-8.20;56.34
70200;BME280;57587;55.688;37.600;2023-02-21T02:04:48;97148.03;;;-8.39;56.37
70200;BME280;57587;55.688;37.600;2023-02-21T02:07:36;97153.72;;;-8.45;56.06
70200;BME280;57587;55.688;37.600;2023-02-21T02:10:22;97143.94;;;-8.52;56.64
70200;BME280;57587;55.688;37.600;2023-02-21T02:21:56;97158.31;;;-8.80;57.49
70200;BME280;57587;55.688;37.600;2023-02-21T02:27:52;97153.38;;;-8.84;56.71
70200;BME280;57587;55.688;37.600;2023-02-21T02:35:54;97145.09;;;-9.21;56.82
70200;BME280;57587;55.688;37.600;2023-02-21T02:38:51;97143.44;;;-9.22;56.82
70200;BME280;57587;55.688;37.600;2023-02-21T02:44:41;97143.22;;;-9.41;56.40
70200;BME280;57587;55.688;37.600;2023-02-21T02:47:13;97139.34;;;-9.47;56.62
70200;BME280;57587;55.688;37.600;2023-02-21T02:49:42;97139.00;;;-9.54;56.98
70200;BME280;57587;55.688;37.600;2023-02-21T02:52:10;97133.94;;;-9.66;56.86
70200;BME280;57587;55.688;37.600;2023-02-21T02:54:37;97144.03;;;-9.63;57.20
70200;BME280;57587;55.688;37.600;2023-02-21T02:57:05;97136.06;;;-9.71;57.28
70200;BME280;57587;55.688;37.600;2023-02-21T02:59:39;97126.66;;;-9.84;57.41
70200;BME280;57587;55.688;37.600;2023-02-21T03:02:33;97137.47;;;-9.90;57.37
70200;BME280;57587;55.688;37.600;2023-02-21T03:05:20;97141.94;;;-9.81;57.57
70200;BME280;57587;55.688;37.600;2023-02-21T03:10:44;97130.53;;;-9.78;56.56
70200;BME280;57587;55.688;37.600;2023-02-21T03:13:23;97133.72;;;-9.75;56.70
70200;BME280;57587;55.688;37.600;2023-02-21T03:16:10;97145.69;;;-9.73;56.62
70200;BME280;57587;55.688;37.600;2023-02-21T03:18:46;97140.75;;;-9.77;56.78
70200;BME280;57587;55.688;37.600;2023-02-21T03:21:19;97149.69;;;-9.69;56.28
70200;BME280;57587;55.688;37.600;2023-02-21T03:23:49;97148.28;;;-9.73;56.50
70200;BME280;57587;55.688;37.600;2023-02-21T03:26:18;97142.41;;;-9.64;56.32
70200;BME280;57587;55.688;37.600;2023-02-21T03:28:48;97142.75;;;-9.58;55.96
70200;BME280;57587;55.688;37.600;2023-02-21T03:31:22;97137.09;;;-9.52;55.65
70200;BME280;57587;55.688;37.600;2023-02-21T03:33:51;97138.16;;;-9.43;55.39
70200;BME280;57587;55.688;37.600;2023-02-21T03:36:18;97135.09;;;-9.48;55.36
70200;BME280;57587;55.688;37.600;2023-02-21T03:38:46;97134.53;;;-9.40;54.60
70200;BME280;57587;55.688;37.600;2023-02-21T03:41:14;97133.72;;;-9.41;55.31
70200;BME280;57587;55.688;37.600;2023-02-21T03:43:42;97126.63;;;-9.39;55.24
70200;BME280;57587;55.688;37.600;2023-02-21T03:46:10;97124.97;;;-9.40;55.15
70200;BME280;57587;55.688;37.600;2023-02-21T03:48:38;97121.56;;;-9.40;54.91
70200;BME280;57587;55.688;37.600;2023-02-21T03:51:15;97128.06;;;-9.35;54.61
70200;BME280;57587;55.688;37.600;2023-02-21T03:53:43;97116.63;;;-9.43;54.92
70200;BME280;57587;55.688;37.600;2023-02-21T03:56:11;97119.44;;;-9.35;54.68
70200;BME280;57587;55.688;37.600;2023-02-21T03:59:07;97121.69;;;-9.42;54.78
70200;BME280;57587;55.688;37.600;2023-02-21T04:01:35;97123.09;;;-9.49;54.62
70200;BME280;57587;55.688;37.600;2023-02-21T04:04:03;97115.09;;;-9.46;54.32
70200;BME280;57587;55.688;37.600;2023-02-21T04:06:30;97116.16;;;-9.48;54.49
70200;BME280;57587;55.688;37.600;2023-02-21T04:08:57;97118.16;;;-9.41;54.63
70200;BME280;57587;55.688;37.600;2023-02-21T04:11:25;97118.84;;;-9.39;54.84
70200;BME280;57587;55.688;37.600;2023-02-21T04:13:53;97118.31;;;-9.54;54.30
70200;BME280;57587;55.688;37.600;2023-02-21T04:16:20;97119.84;;;-9.62;54.59
70200;BME280;57587;55.688;37.600;2023-02-21T04:18:49;97127.59;;;-9.62;54.59
70200;BME280;57587;55.688;37.600;2023-02-21T04:21:18;97130.06;;;-9.72;54.50
70200;BME280;57587;55.688;37.600;2023-02-21T04:23:46;97121.84;;;-9.66;54.84
70200;BME280;57587;55.688;37.600;2023-02-21T04:26:14;97124.50;;;-9.79;54.59
70200;BME280;57587;55.688;37.600;2023-02-21T04:28:47;97125.69;;;-9.94;54.82
70200;BME280;57587;55.688;37.600;2023-02-21T04:31:16;97125.69;;;-10.05;54.67
70200;BME280;57587;55.688;37.600;2023-02-21T04:33:44;97132.72;;;-10.07;54.96
70200;BME280;57587;55.688;37.600;2023-02-21T04:36:16;97131.56;;;-10.14;55.56
70200;BME280;57587;55.688;37.600;2023-02-21T04:38:44;97133.91;;;-10.11;55.39
70200;BME280;57587;55.688;37.600;2023-02-21T04:41:11;97134.13;;;-10.14;55.30
70200;BME280;57587;55.688;37.600;2023-02-21T04:43:41;97144.75;;;-10.06;55.65
70200;BME280;57587;55.688;37.600;2023-02-21T04:46:09;97149.22;;;-9.97;55.22
70200;BME280;57587;55.688;37.600;2023-02-21T04:48:37;97139.56;;;-10.06;55.04
70200;BME280;57587;55.688;37.600;2023-02-21T04:51:04;97138.50;;;-10.04;55.14
70200;BME280;57587;55.688;37.600;2023-02-21T04:53:41;97145.19;;;-10.01;55.13
70200;BME280;57587;55.688;37.600;2023-02-21T04:56:09;97149.56;;;-10.02;55.07
70200;BME280;57587;55.688;37.600;2023-02-21T04:58:38;97142.88;;;-9.93;54.58
70200;BME280;57587;55.688;37.600;2023-02-21T05:01:12;97154.25;;;-10.07;54.30
70200;BME280;57587;55.688;37.600;2023-02-21T05:03:40;97157.69;;;-10.06;54.54
70200;BME280;57587;55.688;37.600;2023-02-21T05:06:07;97154.59;;;-10.11;54.40
70200;BME280;57587;55.688;37.600;2023-02-21T05:08:35;97153.69;;;-9.99;54.27
70200;BME280;57587;55.688;37.600;2023-02-21T05:11:02;97149.59;;;-9.90;54.52
70200;BME280;57587;55.688;37.600;2023-02-21T05:13:29;97151.44;;;-9.92;53.72
70200;BME280;57587;55.688;37.600;2023-02-21T05:15:57;97150.16;;;-9.98;54.02
70200;BME280;57587;55.688;37.600;2023-02-21T05:18:24;97156.50;;;-9.91;53.73
70200;BME280;57587;55.688;37.600;2023-02-21T05:20:54;97150.16;;;-9.87;54.14
70200;BME280;57587;55.688;37.600;2023-02-21T05:23:22;97148.53;;;-9.65;52.84
70200;BME280;57587;55.688;37.600;2023-02-21T05:28:31;97147.34;;;-9.39;52.14
70200;BME280;57587;55.688;37.600;2023-02-21T05:30:58;97155.59;;;-9.34;52.30
70200;BME280;57587;55.688;37.600;2023-02-21T05:33:27;97157.69;;;-9.27;51.74
70200;BME280;57587;55.688;37.600;2023-02-21T05:35:55;97162.16;;;-9.30;52.32
70200;BME280;57587;55.688;37.600;2023-02-21T05:38:23;97157.34;;;-9.34;52.96
70200;BME280;57587;55.688;37.600;2023-02-21T05:40:50;97159.34;;;-9.38;52.07
70200;BME280;57587;55.688;37.600;2023-02-21T05:43:18;97154.66;;;-9.44;52.19
70200;BME280;57587;55.688;37.600;2023-02-21T05:45:45;97159.00;;;-9.44;51.38
70200;BME280;57587;55.688;37.600;2023-02-21T05:48:12;97168.53;;;-9.45;52.10
70200;BME280;57587;55.688;37.600;2023-02-21T05:50:39;97163.81;;;-9.40;51.68
70200;BME280;57587;55.688;37.600;2023-02-21T05:53:07;97156.16;;;-9.41;52.18
70200;BME280;57587;55.688;37.600;2023-02-21T05:55:36;97165.00;;;-9.21;51.44
70200;BME280;57587;55.688;37.600;2023-02-21T05:58:03;97164.03;;;-9.20;51.60
70200;BME280;57587;55.688;37.600;2023-02-21T06:00:31;97159.00;;;-9.22;51.37
70200;BME280;57587;55.688;37.600;2023-02-21T06:02:58;97163.22;;;-9.21;51.74
70200;BME280;57587;55.688;37.600;2023-02-21T06:05:26;97154.63;;;-9.21;50.92
70200;BME280;57587;55.688;37.600;2023-02-21T06:07:53;97155.16;;;-8.95;51.06
70200;BME280;57587;55.688;37.600;2023-02-21T06:10:20;97159.69;;;-8.02;49.68
70200;BME280;57587;55.688;37.600;2023-02-21T06:12:48;97151.06;;;-7.30;47.30
70200;BME280;57587;55.688;37.600;2023-02-21T06:15:15;97156.78;;;-6.67;45.75
70200;BME280;57587;55.688;37.600;2023-02-21T06:17:42;97162.69;;;-5.97;44.37
70200;BME280;57587;55.688;37.600;2023-02-21T06:20:11;97161.41;;;-5.08;42.88
70200;BME280;57587;55.688;37.600;2023-02-21T06:22:39;97153.31;;;-4.42;40.38
70200;BME280;57587;55.688;37.600;2023-02-21T06:25:07;97158.53;;;-4.60;40.28
70200;BME280;57587;55.688;37.600;2023-02-21T06:27:34;97165.31;;;-4.13;38.98
70200;BME280;57587;55.688;37.600;2023-02-21T06:30:03;97159.63;;;-3.65;38.02
70200;BME280;57587;55.688;37.600;2023-02-21T06:32:30;97151.09;;;-3.41;37.57
70200;BME280;57587;55.688;37.600;2023-02-21T06:34:57;97153.00;;;-2.83;37.31
70200;BME280;57587;55.688;37.600;2023-02-21T06:37:24;97144.59;;;-2.44;35.42
70200;BME280;57587;55.688;37.600;2023-02-21T06:39:51;97151.16;;;-1.91;34.27
70200;BME280;57587;55.688;37.600;2023-02-21T06:42:18;97152.22;;;-1.28;34.16
70200;BME280;57587;55.688;37.600;2023-02-21T06:44:46;97150.97;;;-0.93;32.76
70200;BME280;57587;55.688;37.600;2023-02-21T06:47:14;97154.16;;;-0.43;31.53
70200;BME280;57587;55.688;37.600;2023-02-21T06:49:41;97159.81;;;-0.31;31.97
70200;BME280;57587;55.688;37.600;2023-02-21T06:52:09;97149.75;;;0.18;31.20
70200;BME280;57587;55.688;37.600;2023-02-21T06:54:36;97153.31;;;0.78;30.15
70200;BME280;57587;55.688;37.600;2023-02-21T06:57:03;97148.03;;;1.59;29.95
70200;BME280;57587;55.688;37.600;2023-02-21T06:59:31;97141.84;;;2.38;27.94
70200;BME280;57587;55.688;37.600;2023-02-21T07:01:59;97155.88;;;2.94;27.23
70200;BME280;57587;55.688;37.600;2023-02-21T07:04:26;97153.06;;;3.44;26.14
70200;BME280;57587;55.688;37.600;2023-02-21T07:06:53;97147.66;;;3.72;26.47
70200;BME280;57587;55.688;37.600;2023-02-21T07:09:21;97153.22;;;4.10;25.19
70200;BME280;57587;55.688;37.600;2023-02-21T07:11:48;97162.41;;;4.28;24.55
70200;BME280;57587;55.688;37.600;2023-02-21T07:14:15;97158.91;;;4.74;24.61
70200;BME280;57587;55.688;37.600;2023-02-21T07:16:42;97158.56;;;5.35;24.11
70200;BME280;57587;55.688;37.600;2023-02-21T07:19:10;97162.03;;;5.42;23.75
70200;BME280;57587;55.688;37.600;2023-02-21T07:21:42;97159.19;;;5.82;23.43
70200;BME280;57587;55.688;37.600;2023-02-21T07:24:10;97167.38;;;6.51;22.88
70200;BME280;57587;55.688;37.600;2023-02-21T07:26:37;97152.38;;;7.00;21.92
70200;BME280;57587;55.688;37.600;2023-02-21T07:29:05;97159.06;;;7.27;21.46
70200;BME280;57587;55.688;37.600;2023-02-21T07:31:32;97163.78;;;7.62;22.10
70200;BME280;57587;55.688;37.600;2023-02-21T07:34:00;97163.13;;;7.97;21.36
70200;BME280;57587;55.688;37.600;2023-02-21T07:36:27;97166.00;;;8.25;20.75
70200;BME280;57587;55.688;37.600;2023-02-21T07:38:54;97165.88;;;8.62;20.53
70200;BME280;57587;55.688;37.600;2023-02-21T07:41:21;97168.91;;;8.89;20.02
70200;BME280;57587;55.688;37.600;2023-02-21T07:43:48;97161.22;;;9.16;20.02
70200;BME280;57587;55.688;37.600;2023-02-21T07:46:16;97162.09;;;9.57;19.47
70200;BME280;57587;55.688;37.600;2023-02-21T07:48:44;97160.56;;;9.73;18.72
70200;BME280;57587;55.688;37.600;2023-02-21T07:51:11;97162.91;;;9.98;18.72
70200;BME280;57587;55.688;37.600;2023-02-21T07:53:39;97159.69;;;10.13;18.66
70200;BME280;57587;55.688;37.600;2023-02-21T07:56:06;97169.16;;;10.32;18.79
70200;BME280;57587;55.688;37.600;2023-02-21T07:58:33;97171.78;;;10.44;18.73
70200;BME280;57587;55.688;37.600;2023-02-21T08:01:04;97167.94;;;10.11;18.14
70200;BME280;57587;55.688;37.600;2023-02-21T08:03:32;97170.44;;;9.73;18.33
70200;BME280;57587;55.688;37.600;2023-02-21T08:05:59;97170.91;;;9.69;18.21
70200;BME280;57587;55.688;37.600;2023-02-21T08:08:26;97169.13;;;8.99;19.42
70200;BME280;57587;55.688;37.600;2023-02-21T08:10:53;97164.50;;;8.71;18.88
70200;BME280;57587;55.688;37.600;2023-02-21T08:13:20;97176.19;;;8.28;19.81
70200;BME280;57587;55.688;37.600;2023-02-21T08:15:48;97165.28;;;8.18;19.93
70200;BME280;57587;55.688;37.600;2023-02-21T08:18:16;97180.00;;;8.21;19.80
70200;BME280;57587;55.688;37.600;2023-02-21T08:20:46;97174.41;;;8.41;20.03
70200;BME280;57587;55.688;37.600;2023-02-21T08:23:13;97176.84;;;8.54;20.02
70200;BME280;57587;55.688;37.600;2023-02-21T08:25:40;97175.63;;;9.04;19.67
70200;BME280;57587;55.688;37.600;2023-02-21T08:28:07;97174.22;;;9.01;19.08
70200;BME280;57587;55.688;37.600;2023-02-21T08:30:34;97175.97;;;9.19;19.48
70200;BME280;57587;55.688;37.600;2023-02-21T08:33:02;97176.66;;;9.26;19.08
70200;BME280;57587;55.688;37.600;2023-02-21T08:35:29;97176.63;;;9.38;19.42
70200;BME280;57587;55.688;37.600;2023-02-21T08:37:56;97169.66;;;9.60;19.16
70200;BME280;57587;55.688;37.600;2023-02-21T08:40:29;97178.22;;;9.62;19.02
70200;BME280;57587;55.688;37.600;2023-02-21T08:42:59;97174.94;;;9.72;19.24
70200;BME280;57587;55.688;37.600;2023-02-21T08:45:27;97177.84;;;9.70;18.68
70200;BME280;57587;55.688;37.600;2023-02-21T08:47:55;97176.16;;;9.93;19.32
70200;BME280;57587;55.688;37.600;2023-02-21T08:50:23;97173.47;;;10.22;18.59
70200;BME280;57587;55.688;37.600;2023-02-21T08:52:53;97172.97;;;10.25;18.93
70200;BME280;57587;55.688;37.600;2023-02-21T08:55:30;97165.13;;;10.18;18.44
70200;BME280;57587;55.688;37.600;2023-02-21T08:57:57;97168.81;;;10.29;18.46
70200;BME280;57587;55.688;37.600;2023-02-21T09:00:24;97165.38;;;10.16;18.41
70200;BME280;57587;55.688;37.600;2023-02-21T09:02:57;97167.91;;;9.95;19.45
70200;BME280;57587;55.688;37.600;2023-02-21T09:05:28;97179.25;;;9.73;19.33
70200;BME280;57587;55.688;37.600;2023-02-21T09:08:00;97180.59;;;8.65;20.04
70200;BME280;57587;55.688;37.600;2023-02-21T09:10:29;97173.66;;;7.73;20.01
70200;BME280;57587;55.688;37.600;2023-02-21T09:13:04;97179.09;;;6.86;20.98
70200;BME280;57587;55.688;37.600;2023-02-21T09:15:34;97182.97;;;6.09;22.02
70200;BME280;57587;55.688;37.600;2023-02-21T09:18:01;97187.78;;;5.22;22.56
70200;BME280;57587;55.688;37.600;2023-02-21T09:20:28;97186.22;;;4.81;23.64
70200;BME280;57587;55.688;37.600;2023-02-21T09:22:55;97189.63;;;4.08;24.11
70200;BME280;57587;55.688;37.600;2023-02-21T09:25:23;97186.00;;;4.29;23.81
70200;BME280;57587;55.688;37.600;2023-02-21T09:27:52;97187.44;;;4.78;24.02
70200;BME280;57587;55.688;37.600;2023-02-21T09:30:22;97182.28;;;5.75;22.28
70200;BME280;57587;55.688;37.600;2023-02-21T09:32:52;97191.06;;;6.20;21.93
70200;BME280;57587;55.688;37.600;2023-02-21T09:35:21;97189.66;;;6.43;21.62
70200;BME280;57587;55.688;37.600;2023-02-21T09:37:48;97185.13;;;7.00;20.85
70200;BME280;57587;55.688;37.600;2023-02-21T09:43:30;97182.28;;;8.17;20.27
70200;BME280;57587;55.688;37.600;2023-02-21T09:46:11;97185.19;;;8.58;18.52
70200;BME280;57587;55.688;37.600;2023-02-21T09:48:40;97179.09;;;8.81;18.73
70200;BME280;57587;55.688;37.600;2023-02-21T09:51:10;97179.78;;;8.64;19.69
70200;BME280;57587;55.688;37.600;2023-02-21T09:53:42;97167.03;;;8.66;19.21
70200;BME280;57587;55.688;37.600;2023-02-21T09:56:32;97177.78;;;8.60;19.27
70200;BME280;57587;55.688;37.600;2023-02-21T09:59:00;97181.91;;;8.86;19.45
70200;BME280;57587;55.688;37.600;2023-02-21T10:05:02;97181.31;;;8.95;19.53
70200;BME280;57587;55.688;37.600;2023-02-21T10:08:06;97175.97;;;8.95;18.92
70200;BME280;57587;55.688;37.600;2023-02-21T10:10:44;97189.16;;;8.55;18.43
70200;BME280;57587;55.688;37.600;2023-02-21T10:13:45;97182.19;;;7.45;20.21
70200;BME280;57587;55.688;37.600;2023-02-21T10:16:20;97185.88;;;7.44;19.92
70200;BME280;57587;55.688;37.600;2023-02-21T10:19:19;97184.66;;;7.77;20.87
70200;BME280;57587;55.688;37.600;2023-02-21T10:22:20;97185.09;;;8.22;20.12
70200;BME280;57587;55.688;37.600;2023-02-21T10:24:49;97185.94;;;8.35;19.56
70200;BME280;57587;55.688;37.600;2023-02-21T10:27:19;97190.06;;;8.61;19.63
70200;BME280;57587;55.688;37.600;2023-02-21T10:29:51;97186.97;;;8.75;20.66
70200;BME280;57587;55.688;37.600;2023-02-21T10:32:22;97195.16;;;7.90;20.69
70200;BME280;57587;55.688;37.600;2023-02-21T10:34:51;97184.84;;;6.83;20.96
70200;BME280;57587;55.688;37.600;2023-02-21T10:37:40;97198.25;;;6.13;22.03
70200;BME280;57587;55.688;37.600;2023-02-21T10:40:31;97205.34;;;5.03;23.43
70200;BME280;57587;55.688;37.600;2023-02-21T10:45:37;97210.22;;;4.20;23.68
70200;BME280;57587;55.688;37.600;2023-02-21T10:48:09;97215.56;;;4.66;23.95
70200;BME280;57587;55.688;37.600;2023-02-21T10:58:50;97228.16;;;5.24;23.05
70200;BME280;57587;55.688;37.600;2023-02-21T11:01:22;97235.00;;;5.58;22.62
70200;BME280;57587;55.688;37.600;2023-02-21T11:07:01;97233.88;;;5.01;22.95
70200;BME280;57587;55.688;37.600;2023-02-21T11:09:49;97211.19;;;3.92;24.61
70200;BME280;57587;55.688;37.600;2023-02-21T11:12:29;97226.13;;;3.23;25.39
70200;BME280;57587;55.688;37.600;2023-02-21T11:15:19;97230.50;;;2.32;26.47
70200;BME280;57587;55.688;37.600;2023-02-21T11:21:54;97235.81;;;0.85;28.54
70200;BME280;57587;55.688;37.600;2023-02-21T11:24:52;97252.38;;;0.33;29.58
70200;BME280;57587;55.688;37.600;2023-02-21T11:31:31;97241.59;;;-0.34;31.41
70200;BME280;57587;55.688;37.600;2023-02-21T11:34:19;97248.53;;;-0.81;31.62
70200;BME280;57587;55.688;37.600;2023-02-21T11:37:03;97258.13;;;-1.12;32.22
70200;BME280;57587;55.688;37.600;2023-02-21T11:39:32;97262.25;;;-1.34;32.36
70200;BME280;57587;55.688;37.600;2023-02-21T11:42:22;97268.63;;;-1.62;33.25
70200;BME280;57587;55.688;37.600;2023-02-21T11:45:03;97275.34;;;-1.92;33.92
70200;BME280;57587;55.688;37.600;2023-02-21T11:47:42;97267.78;;;-2.03;33.86
70200;BME280;57587;55.688;37.600;2023-02-21T11:50:23;97273.69;;;-2.01;34.40
70200;BME280;57587;55.688;37.600;2023-02-21T11:55:43;97279.81;;;-2.35;34.03
70200;BME280;57587;55.688;37.600;2023-02-21T12:02:11;97279.22;;;-2.89;34.80
70200;BME280;57587;55.688;37.600;2023-02-21T12:10:49;97299.19;;;-3.40;35.00
70200;BME280;57587;55.688;37.600;2023-02-21T12:19:11;97310.72;;;-3.68;37.01
70200;BME280;57587;55.688;37.600;2023-02-21T12:27:26;97311.88;;;-3.99;38.05
70200;BME280;57587;55.688;37.600;2023-02-21T12:35:38;97317.75;;;-4.14;38.71
70200;BME280;57587;55.688;37.600;2023-02-21T12:44:12;97343.38;;;-4.28;38.01
70200;BME280;57587;55.688;37.600;2023-02-21T12:57:55;97351.16;;;-4.46;41.78
70200;BME280;57587;55.688;37.600;2023-02-21T13:00:31;97351.53;;;-4.41;40.96
70200;BME280;57587;55.688;37.600;2023-02-21T13:05:46;97357.69;;;-4.32;40.60
70200;BME280;57587;55.688;37.600;2023-02-21T13:08:18;97369.34;;;-4.26;41.16
70200;BME280;57587;55.688;37.600;2023-02-21T13:13:35;97371.19;;;-4.46;40.52
70200;BME280;57587;55.688;37.600;2023-02-21T13:16:06;97374.97;;;-4.58;41.28
70200;BME280;57587;55.688;37.600;2023-02-21T13:18:46;97374.28;;;-4.60;41.06
70200;BME280;57587;55.688;37.600;2023-02-21T13:26:59;97403.84;;;-4.70;41.24
70200;BME280;57587;55.688;37.600;2023-02-21T13:29:31;97403.44;;;-4.75;40.86
70200;BME280;57587;55.688;37.600;2023-02-21T13:32:03;97399.78;;;-4.92;40.43
70200;BME280;57587;55.688;37.600;2023-02-21T13:34:38;97413.22;;;-4.96;41.19
70200;BME280;57587;55.688;37.600;2023-02-21T13:37:16;97409.09;;;-4.99;41.04
70200;BME280;57587;55.688;37.600;2023-02-21T13:39:52;97410.50;;;-5.04;42.04
70200;BME280;57587;55.688;37.600;2023-02-21T13:42:25;97413.66;;;-5.11;41.47
70200;BME280;57587;55.688;37.600;2023-02-21T13:56:13;97432.44;;;-5.56;42.11
70200;BME280;57587;55.688;37.600;2023-02-21T13:58:49;97447.91;;;-5.64;42.82
70200;BME280;57587;55.688;37.600;2023-02-21T14:03:54;97458.28;;;-5.83;42.51
70200;BME280;57587;55.688;37.600;2023-02-21T14:06:35;97459.78;;;-5.90;42.88
70200;BME280;57587;55.688;37.600;2023-02-21T14:09:12;97464.16;;;-6.00;42.63
70200;BME280;57587;55.688;37.600;2023-02-21T14:11:50;97465.00;;;-6.00;43.02
70200;BME280;57587;55.688;37.600;2023-02-21T14:14:30;97480.56;;;-6.10;43.40
70200;BME280;57587;55.688;37.600;2023-02-21T14:17:02;97497.78;;;-6.18;43.16
70200;BME280;57587;55.688;37.600;2023-02-21T14:25:07;97503.06;;;-6.51;43.50
70200;BME280;57587;55.688;37.600;2023-02-21T14:27:41;97498.88;;;-6.63;43.82
70200;BME280;57587;55.688;37.600;2023-02-21T14:32:49;97516.53;;;-6.66;44.56
70200;BME280;57587;55.688;37.600;2023-02-21T14:46:29;97548.81;;;-6.90;44.32
70200;BME280;57587;55.688;37.600;2023-02-21T14:49:12;97547.53;;;-6.96;45.16
70200;BME280;57587;55.688;37.600;2023-02-21T15:03:07;97578.00;;;-6.98;45.46
70200;BME280;57587;55.688;37.600;2023-02-21T15:06:28;97582.97;;;-6.94;46.08
70200;BME280;57587;55.688;37.600;2023-02-21T15:08:51;97591.16;;;-6.99;45.45
70200;BME280;57587;55.688;37.600;2023-02-21T15:14:11;97599.19;;;-7.13;45.54
70200;BME280;57587;55.688;37.600;2023-02-21T15:16:43;97599.09;;;-7.12;46.46
70200;BME280;57587;55.688;37.600;2023-02-21T15:19:30;97607.56;;;-7.10;45.74
70200;BME280;57587;55.688;37.600;2023-02-21T15:22:23;97609.72;;;-7.15;45.88
70200;BME280;57587;55.688;37.600;2023-02-21T15:27:35;97615.38;;;-7.10;46.13
70200;BME280;57587;55.688;37.600;2023-02-21T15:30:28;97621.88;;;-7.15;45.33
70200;BME280;57587;55.688;37.600;2023-02-21T15:33:17;97628.16;;;-7.18;46.17
70200;BME280;57587;55.688;37.600;2023-02-21T15:35:57;97640.69;;;-7.23;45.70
70200;BME280;57587;55.688;37.600;2023-02-21T15:41:38;97649.19;;;-7.32;47.17
70200;BME280;57587;55.688;37.600;2023-02-21T15:44:15;97651.78;;;-7.32;46.56
70200;BME280;57587;55.688;37.600;2023-02-21T15:49:24;97656.16;;;-7.33;46.58
70200;BME280;57587;55.688;37.600;2023-02-21T15:51:52;97664.53;;;-7.29;46.60
70200;BME280;57587;55.688;37.600;2023-02-21T15:56:46;97670.69;;;-7.42;46.80
70200;BME280;57587;55.688;37.600;2023-02-21T15:59:25;97678.72;;;-7.45;46.55
70200;BME280;57587;55.688;37.600;2023-02-21T16:04:43;97686.63;;;-7.57;47.26
70200;BME280;57587;55.688;37.600;2023-02-21T16:07:34;97695.25;;;-7.57;47.00
70200;BME280;57587;55.688;37.600;2023-02-21T16:10:06;97696.19;;;-7.58;47.05
70200;BME280;57587;55.688;37.600;2023-02-21T16:12:40;97699.47;;;-7.56;47.01
70200;BME280;57587;55.688;37.600;2023-02-21T16:15:27;97712.84;;;-7.49;47.41
70200;BME280;57587;55.688;37.600;2023-02-21T16:18:04;97711.75;;;-7.47;47.00
70200;BME280;57587;55.688;37.600;2023-02-21T16:20:36;97718.41;;;-7.43;47.54
70200;BME280;57587;55.688;37.600;2023-02-21T16:26:17;97723.50;;;-7.30;47.48
70200;BME280;57587;55.688;37.600;2023-02-21T16:28:46;97732.81;;;-7.38;46.56
70200;BME280;57587;55.688;37.600;2023-02-21T16:31:15;97720.41;;;-7.35;47.21